createdAt,value
2019-04-26T00:00:25.194Z,95.00
2019-04-26T00:02:56.917Z,95.00
2019-04-26T00:05:34.359Z,94.60
2019-04-26T00:07:58.760Z,94.60
2019-04-26T00:10:36.029Z,94.90
2019-04-26T00:13:24.285Z,94.70
2019-04-26T00:16:11.699Z,94.50
2019-04-26T00:18:42.468Z,93.80
2019-04-26T00:21:12.561Z,94.00
2019-04-26T00:23:42.757Z,93.70
2019-04-26T00:26:13.498Z,94.00
2019-04-26T00:28:43.681Z,94.00
2019-04-26T00:31:13.677Z,94.10
2019-04-26T00:33:44.661Z,94.00
2019-04-26T00:36:14.822Z,94.20
2019-04-26T00:38:45.918Z,94.20
2019-04-26T00:41:16.434Z,94.40
2019-04-26T00:43:46.704Z,94.60
2019-04-26T00:46:18.826Z,94.60
2019-04-26T00:48:51.074Z,94.50
2019-04-26T00:51:21.723Z,94.40
2019-04-26T00:53:52.193Z,94.50
2019-04-26T00:56:22.685Z,94.50
2019-04-26T00:58:53.008Z,94.50
2019-04-26T01:01:25.009Z,94.20
2019-04-26T01:03:55.019Z,94.40
2019-04-26T01:06:26.673Z,94.60
2019-04-26T01:08:56.618Z,94.30
2019-04-26T01:11:26.533Z,94.20
2019-04-26T01:13:56.558Z,94.30
2019-04-26T01:16:26.476Z,94.10
2019-04-26T01:18:57.931Z,94.00
2019-04-26T01:21:30.863Z,93.70
2019-04-26T01:24:03.389Z,93.50
2019-04-26T01:26:38.782Z,93.10
2019-04-26T01:29:17.188Z,92.80
2019-04-26T01:32:02.462Z,92.50
2019-04-26T01:34:34.250Z,92.20
2019-04-26T01:37:04.320Z,92.20
2019-04-26T01:39:36.755Z,92.20
2019-04-26T01:42:20.998Z,92.30
2019-04-26T01:44:59.045Z,92.30
2019-04-26T01:47:29.264Z,92.50
2019-04-26T01:49:59.349Z,92.60
2019-04-26T01:52:29.720Z,92.60
2019-04-26T01:54:59.898Z,92.70
2019-04-26T01:57:31.577Z,92.70
2019-04-26T02:00:18.142Z,92.70
2019-04-26T02:02:52.452Z,92.80
2019-04-26T02:05:24.105Z,92.80
2019-04-26T02:07:54.208Z,92.70
2019-04-26T02:10:25.248Z,92.60
2019-04-26T02:12:56.482Z,92.50
2019-04-26T02:15:29.401Z,92.50
2019-04-26T02:18:00.585Z,92.40
2019-04-26T02:20:53.253Z,92.50
2019-04-26T02:23:26.279Z,92.60
2019-04-26T02:25:56.325Z,92.70
2019-04-26T02:28:26.784Z,92.60
2019-04-26T02:30:56.866Z,92.60
2019-04-26T02:33:29.106Z,92.60
2019-04-26T02:35:58.683Z,92.70
2019-04-26T02:38:29.656Z,92.80
2019-04-26T02:41:00.762Z,93.00
2019-04-26T02:43:32.096Z,93.00
2019-04-26T02:46:05.702Z,92.60
2019-04-26T02:48:48.994Z,92.30
2019-04-26T02:51:21.976Z,92.20
2019-04-26T02:53:57.884Z,92.10
2019-04-26T02:56:35.109Z,92.00
2019-04-26T02:59:13.921Z,91.70
2019-04-26T03:01:44.014Z,91.60
2019-04-26T03:04:14.153Z,91.50
2019-04-26T03:07:02.497Z,91.50
2019-04-26T03:09:18.838Z,91.50
2019-04-26T03:12:06.423Z,91.40
2019-04-26T03:14:43.092Z,91.60
2019-04-26T03:17:15.729Z,91.50
2019-04-26T03:19:58.006Z,91.50
2019-04-26T03:22:31.932Z,91.50
2019-04-26T03:25:25.025Z,91.50
2019-04-26T03:28:12.638Z,91.50
2019-04-26T03:31:03.203Z,91.40
2019-04-26T03:33:48.730Z,91.60
2019-04-26T03:36:21.022Z,91.90
2019-04-26T03:39:01.250Z,92.00
2019-04-26T03:41:44.459Z,92.40
2019-04-26T03:44:17.415Z,92.50
2019-04-26T03:46:56.216Z,92.40
2019-04-26T03:49:47.095Z,92.20
2019-04-26T03:52:28.910Z,92.70
2019-04-26T03:55:04.464Z,92.80
2019-04-26T03:57:55.601Z,93.20
2019-04-26T04:00:35.236Z,93.20
2019-04-26T04:03:10.653Z,93.80
2019-04-26T04:05:48.481Z,93.90
2019-04-26T04:08:21.526Z,94.30
2019-04-26T04:10:57.184Z,94.30
2019-04-26T04:13:51.005Z,94.50
2019-04-26T04:16:34.399Z,94.50
2019-04-26T04:19:07.458Z,94.70
2019-04-26T04:21:46.433Z,94.30
2019-04-26T04:24:19.806Z,94.10
2019-04-26T04:26:57.910Z,94.30
2019-04-26T04:29:42.778Z,94.00
2019-04-26T04:32:17.177Z,94.00
2019-04-26T04:34:50.191Z,93.90
2019-04-26T04:37:23.354Z,93.90
2019-04-26T04:40:25.251Z,93.80
2019-04-26T04:43:02.561Z,94.10
2019-04-26T04:45:56.767Z,94.30
2019-04-26T04:48:34.041Z,93.90
2019-04-26T04:51:15.681Z,94.30
2019-04-26T04:53:49.778Z,94.30
2019-04-26T04:56:39.973Z,94.20
2019-04-26T04:59:12.926Z,93.60
2019-04-26T05:02:08.270Z,93.80
2019-04-26T05:04:51.477Z,93.00
2019-04-26T05:07:33.109Z,93.20
2019-04-26T05:10:17.826Z,93.40
2019-04-26T05:13:16.313Z,93.40
2019-04-26T05:15:59.922Z,92.90
2019-04-26T05:18:33.505Z,93.30
2019-04-26T05:21:24.216Z,93.50
2019-04-26T05:24:19.361Z,93.20
2019-04-26T05:26:56.820Z,93.10
2019-04-26T05:29:51.999Z,93.20
2019-04-26T05:32:28.028Z,93.20
2019-04-26T05:35:49.760Z,92.80
2019-04-26T05:38:40.616Z,92.50
2019-04-26T05:41:36.206Z,92.10
2019-04-26T05:44:31.649Z,92.00
2019-04-26T05:47:20.658Z,91.90
2019-04-26T05:50:24.750Z,92.00
2019-04-26T05:53:09.069Z,92.30
2019-04-26T05:55:56.049Z,92.50
2019-04-26T05:58:33.425Z,92.60
2019-04-26T06:01:39.509Z,92.60
2019-04-26T06:04:30.470Z,92.40
2019-04-26T06:07:14.385Z,92.50
2019-04-26T06:10:22.386Z,92.60
2019-04-26T06:13:06.038Z,92.60
2019-04-26T06:16:00.148Z,92.40
2019-04-26T06:18:44.617Z,91.70
2019-04-26T06:21:38.302Z,91.50
2019-04-26T06:24:17.128Z,90.90
2019-04-26T06:27:17.643Z,90.30
2019-04-26T06:30:03.352Z,89.70
2019-04-26T06:32:55.987Z,89.40
2019-04-26T06:35:20.140Z,88.50
2019-04-26T06:38:25.701Z,88.20
2019-04-26T06:41:04.737Z,87.60
2019-04-26T06:43:44.890Z,86.80
2019-04-26T06:46:25.003Z,87.20
2019-04-26T06:49:29.473Z,87.20
2019-04-26T06:52:05.221Z,85.70
2019-04-26T06:54:46.725Z,85.90
2019-04-26T06:57:30.126Z,86.00
2019-04-26T07:00:11.124Z,85.30
2019-04-26T07:03:01.985Z,85.90
2019-04-26T07:05:37.859Z,85.60
2019-04-26T07:08:32.990Z,86.20
2019-04-26T07:11:32.762Z,86.60
2019-04-26T07:14:22.277Z,86.40
2019-04-26T07:17:06.444Z,86.10
2019-04-26T07:20:16.616Z,86.70
2019-04-26T07:23:25.590Z,85.60
2019-04-26T07:26:25.402Z,85.40
2019-04-26T07:29:07.165Z,84.80
2019-04-26T07:31:53.410Z,84.90
2019-04-26T07:34:50.465Z,84.80
2019-04-26T07:37:52.101Z,85.40
2019-04-26T07:40:44.358Z,85.20
2019-04-26T07:43:38.562Z,85.10
2019-04-26T07:46:33.776Z,85.70
2019-04-26T07:49:26.200Z,86.60
2019-04-26T07:52:19.962Z,86.40
2019-04-26T07:55:07.197Z,85.50
2019-04-26T07:57:50.054Z,86.30
2019-04-26T08:00:44.394Z,86.20
2019-04-26T08:03:31.398Z,85.50
2019-04-26T08:06:13.727Z,85.50
2019-04-26T08:08:56.569Z,86.00
2019-04-26T08:11:44.580Z,85.40
2019-04-26T08:14:19.913Z,85.20
2019-04-26T08:17:27.631Z,84.50
2019-04-26T08:20:15.444Z,85.10
2019-04-26T08:22:48.590Z,84.70
2019-04-26T08:25:21.578Z,84.30
2019-04-26T08:27:54.523Z,84.30
2019-04-26T08:30:26.410Z,84.90
2019-04-26T08:33:02.044Z,83.70
2019-04-26T08:35:33.493Z,83.20
2019-04-26T08:38:13.529Z,82.70
2019-04-26T08:40:39.168Z,82.10
2019-04-26T08:43:11.534Z,81.80
2019-04-26T08:46:03.538Z,82.40
2019-04-26T08:48:42.945Z,82.70
2019-04-26T08:51:20.579Z,83.10
2019-04-26T08:53:50.418Z,83.30
2019-04-26T08:56:23.358Z,82.60
2019-04-26T08:58:56.377Z,84.20
2019-04-26T09:01:29.544Z,83.20
2019-04-26T09:04:06.169Z,83.20
2019-04-26T09:06:48.553Z,83.10
2019-04-26T09:09:23.185Z,83.40
2019-04-26T09:11:59.685Z,82.40
2019-04-26T09:14:30.449Z,82.10
2019-04-26T09:17:00.531Z,82.40
2019-04-26T09:19:32.190Z,83.00
2019-04-26T09:22:12.728Z,83.10
2019-04-26T09:24:40.082Z,82.90
2019-04-26T09:27:29.947Z,83.30
2019-04-26T09:30:07.647Z,82.90
2019-04-26T09:32:51.126Z,82.40
2019-04-26T09:35:20.417Z,82.70
2019-04-26T09:37:50.352Z,83.40
2019-04-26T09:40:22.673Z,82.50
2019-04-26T09:43:05.568Z,82.40
2019-04-26T09:45:42.310Z,83.80
2019-04-26T09:48:19.953Z,84.00
2019-04-26T09:50:51.612Z,83.40
2019-04-26T09:53:21.692Z,83.30
2019-04-26T09:55:51.705Z,83.90
2019-04-26T09:58:21.690Z,85.20
2019-04-26T10:00:51.975Z,85.50
2019-04-26T10:03:21.978Z,87.90
2019-04-26T10:05:52.249Z,89.40
2019-04-26T10:08:23.878Z,90.80
2019-04-26T10:10:53.991Z,91.10
2019-04-26T10:13:28.626Z,90.90
2019-04-26T10:16:06.072Z,91.60
2019-04-26T10:18:37.746Z,91.90
2019-04-26T10:21:07.845Z,92.00
2019-04-26T10:23:39.502Z,91.60
2019-04-26T10:26:09.705Z,91.40
2019-04-26T10:28:39.691Z,92.20
2019-04-26T10:31:09.790Z,92.40
2019-04-26T10:33:41.465Z,92.80
2019-04-26T10:36:11.496Z,93.00
2019-04-26T10:38:41.413Z,93.00
2019-04-26T10:41:11.530Z,92.30
2019-04-26T10:43:41.525Z,93.00
2019-04-26T10:46:11.536Z,93.30
2019-04-26T10:48:41.471Z,93.30
2019-04-26T10:51:13.189Z,93.60
2019-04-26T10:53:50.318Z,93.10
2019-04-26T10:56:27.335Z,92.80
2019-04-26T10:59:09.764Z,93.20
2019-04-26T11:01:39.508Z,93.00
2019-04-26T11:04:09.561Z,93.10
2019-04-26T11:06:39.613Z,92.40
2019-04-26T11:09:09.786Z,93.10
2019-04-26T11:11:40.349Z,92.50
2019-04-26T11:14:10.305Z,92.50
2019-04-26T11:16:41.157Z,92.50
2019-04-26T11:19:12.340Z,92.10
2019-04-26T11:21:42.341Z,91.10
2019-04-26T11:24:15.239Z,90.60
2019-04-26T11:26:43.996Z,90.40
2019-04-26T11:29:14.969Z,90.50
2019-04-26T11:31:45.091Z,89.30
2019-04-26T11:34:15.138Z,88.80
2019-04-26T11:36:45.163Z,89.80
2019-04-26T11:39:16.478Z,89.50
2019-04-26T11:41:46.557Z,86.90
2019-04-26T11:44:17.181Z,86.70
2019-04-26T11:46:47.293Z,84.00
2019-04-26T11:49:17.177Z,85.40
2019-04-26T11:51:47.217Z,84.50
2019-04-26T11:54:20.660Z,84.20
2019-04-26T11:56:50.295Z,85.40
2019-04-26T11:59:20.670Z,85.40
2019-04-26T12:01:50.833Z,85.50
2019-04-26T12:04:25.398Z,85.70
2019-04-26T12:07:00.118Z,85.80
2019-04-26T12:09:34.676Z,85.20
2019-04-26T12:12:08.830Z,84.50
2019-04-26T12:14:36.833Z,84.10
2019-04-26T12:17:06.977Z,85.10
2019-04-26T12:19:36.977Z,85.10
2019-04-26T12:22:08.386Z,85.80
2019-04-26T12:24:38.689Z,85.00
2019-04-26T12:27:10.335Z,86.10
2019-04-26T12:29:44.192Z,86.70
2019-04-26T12:32:17.080Z,82.80
2019-04-26T12:34:46.341Z,81.90
2019-04-26T12:37:19.966Z,80.10
2019-04-26T12:39:48.586Z,81.00
2019-04-26T12:42:18.667Z,77.50
2019-04-26T12:44:50.389Z,78.90
2019-04-26T12:47:30.509Z,79.70
2019-04-26T12:50:02.206Z,80.70
2019-04-26T12:52:32.286Z,80.30
2019-04-26T12:55:02.441Z,80.60
2019-04-26T12:57:36.665Z,78.80
2019-04-26T13:00:06.951Z,77.00
2019-04-26T13:02:37.307Z,78.60
2019-04-26T13:05:07.453Z,78.60
2019-04-26T13:07:39.007Z,78.30
2019-04-26T13:10:15.056Z,75.50
2019-04-26T13:12:50.193Z,77.00
2019-04-26T13:15:41.945Z,77.10
2019-04-26T13:18:12.621Z,79.10
2019-04-26T13:20:42.537Z,75.10
2019-04-26T13:23:12.477Z,74.20
2019-04-26T13:25:42.452Z,74.80
2019-04-26T13:28:15.724Z,75.10
2019-04-26T13:30:45.910Z,75.00
2019-04-26T13:33:15.987Z,73.30
2019-04-26T13:36:02.303Z,71.70
2019-04-26T13:38:20.633Z,69.80
2019-04-26T13:40:52.742Z,70.30
2019-04-26T13:43:26.829Z,70.10
2019-04-26T13:45:56.001Z,70.70
2019-04-26T13:48:27.594Z,70.10
2019-04-26T13:51:05.695Z,69.40
2019-04-26T13:53:35.049Z,68.40
2019-04-26T13:56:05.211Z,69.80
2019-04-26T13:58:35.900Z,68.50
2019-04-26T14:01:06.633Z,68.60
2019-04-26T14:03:36.665Z,69.30
2019-04-26T14:06:06.726Z,68.40
2019-04-26T14:08:36.886Z,66.70
2019-04-26T14:11:08.419Z,65.50
2019-04-26T14:13:38.481Z,64.40
2019-04-26T14:16:08.407Z,61.60
2019-04-26T14:18:38.953Z,61.90
2019-04-26T14:21:10.186Z,60.40
2019-04-26T14:23:45.328Z,61.90
2019-04-26T14:26:40.018Z,60.40
2019-04-26T14:29:08.028Z,61.80
2019-04-26T14:31:38.950Z,62.70
2019-04-26T14:34:11.877Z,60.80
2019-04-26T14:36:43.556Z,62.30
2019-04-26T14:39:14.850Z,60.90
2019-04-26T14:41:44.149Z,60.70
2019-04-26T14:44:15.639Z,60.90
2019-04-26T14:46:49.071Z,62.30
2019-04-26T14:49:19.154Z,62.50
2019-04-26T14:51:50.822Z,63.00
2019-04-26T14:54:20.614Z,63.80
2019-04-26T14:56:52.477Z,64.70
2019-04-26T14:59:44.235Z,64.90
2019-04-26T15:02:28.144Z,63.60
2019-04-26T15:05:07.216Z,64.40
2019-04-26T15:07:35.090Z,63.20
2019-04-26T15:10:06.798Z,61.00
2019-04-26T15:12:46.257Z,58.80
2019-04-26T15:15:09.846Z,57.70
2019-04-26T15:17:39.801Z,56.90
2019-04-26T15:20:09.769Z,56.50
2019-04-26T15:22:42.928Z,55.80
2019-04-26T15:25:11.999Z,56.30
2019-04-26T15:27:44.202Z,57.30
2019-04-26T15:30:14.289Z,58.40
2019-04-26T15:32:44.359Z,59.70
2019-04-26T15:35:17.553Z,60.50
2019-04-26T15:37:45.958Z,55.20
2019-04-26T15:40:17.611Z,52.30
2019-04-26T15:42:58.881Z,52.60
2019-04-26T15:45:39.010Z,54.00
2019-04-26T15:48:20.195Z,55.20
2019-04-26T15:50:53.572Z,57.20
2019-04-26T15:53:24.102Z,58.20
2019-04-26T15:55:54.044Z,58.80
2019-04-26T15:58:23.978Z,58.80
2019-04-26T16:00:54.057Z,58.80
2019-04-26T16:03:24.039Z,59.60
2019-04-26T16:05:54.135Z,59.90
2019-04-26T16:08:25.189Z,59.00
2019-04-26T16:10:55.333Z,57.80
2019-04-26T16:13:25.976Z,58.70
2019-04-26T16:15:56.041Z,58.10
2019-04-26T16:18:26.015Z,56.70
2019-04-26T16:20:56.021Z,55.90
2019-04-26T16:23:38.190Z,56.20
2019-04-26T16:25:58.121Z,55.50
2019-04-26T16:28:30.999Z,55.30
2019-04-26T16:31:18.917Z,55.00
2019-04-26T16:33:53.174Z,54.90
2019-04-26T16:36:23.906Z,54.10
2019-04-26T16:38:56.753Z,54.90
2019-04-26T16:41:27.126Z,52.50
2019-04-26T16:43:57.462Z,53.40
2019-04-26T16:46:27.470Z,52.10
2019-04-26T16:49:02.403Z,50.60
2019-04-26T16:51:29.102Z,50.90
2019-04-26T16:54:07.002Z,51.10
2019-04-26T16:56:35.656Z,51.40
2019-04-26T16:59:02.940Z,49.90
2019-04-26T17:01:33.370Z,50.20
2019-04-26T17:04:10.955Z,50.70
2019-04-26T17:06:44.253Z,51.00
2019-04-26T17:09:09.158Z,51.60
2019-04-26T17:11:41.315Z,51.10
2019-04-26T17:14:11.265Z,50.50
2019-04-26T17:16:53.190Z,49.80
2019-04-26T17:19:23.384Z,51.00
2019-04-26T17:21:56.505Z,49.70
2019-04-26T17:24:46.250Z,49.40
2019-04-26T17:27:16.818Z,50.00
2019-04-26T17:29:46.901Z,50.10
2019-04-26T17:32:17.484Z,49.90
2019-04-26T17:34:47.601Z,49.80
2019-04-26T17:37:17.776Z,50.10
2019-04-26T17:39:52.153Z,49.40
2019-04-26T17:42:21.108Z,49.30
2019-04-26T17:44:52.563Z,50.60
2019-04-26T17:47:23.575Z,51.60
2019-04-26T17:49:53.588Z,51.60
2019-04-26T17:52:23.557Z,52.30
2019-04-26T17:54:53.614Z,54.00
2019-04-26T17:57:33.728Z,56.40
2019-04-26T18:00:06.668Z,53.60
2019-04-26T18:02:41.332Z,54.30
2019-04-26T18:05:03.250Z,54.00
2019-04-26T18:07:41.396Z,54.10
2019-04-26T18:10:10.368Z,54.60
2019-04-26T18:12:41.474Z,54.60
2019-04-26T18:15:18.776Z,54.80
2019-04-26T18:17:53.138Z,57.30
2019-04-26T18:20:25.977Z,55.40
2019-04-26T18:22:57.613Z,56.10
2019-04-26T18:25:28.719Z,56.80
2019-04-26T18:27:58.803Z,56.40
2019-04-26T18:30:28.766Z,56.00
2019-04-26T18:32:58.773Z,56.20
2019-04-26T18:35:28.841Z,55.90
2019-04-26T18:37:58.814Z,55.50
2019-04-26T18:40:28.817Z,55.30
2019-04-26T18:42:58.793Z,55.50
2019-04-26T18:45:30.194Z,56.00
2019-04-26T18:48:01.285Z,56.70
2019-04-26T18:50:32.704Z,56.30
2019-04-26T18:53:05.193Z,56.80
2019-04-26T18:55:35.329Z,57.20
2019-04-26T18:58:05.718Z,57.30
2019-04-26T19:00:37.423Z,56.80
2019-04-26T19:03:07.493Z,56.80
2019-04-26T19:05:37.493Z,57.50
2019-04-26T19:08:09.894Z,56.90
2019-04-26T19:10:40.260Z,56.80
2019-04-26T19:13:17.850Z,57.60
2019-04-26T19:15:55.459Z,58.00
2019-04-26T19:18:33.933Z,58.10
2019-04-26T19:21:09.050Z,59.10
2019-04-26T19:23:39.054Z,58.30
2019-04-26T19:26:09.392Z,58.90
2019-04-26T19:28:43.135Z,59.70
2019-04-26T19:31:12.870Z,59.60
2019-04-26T19:33:42.916Z,60.30
2019-04-26T19:36:13.821Z,61.00
2019-04-26T19:38:49.696Z,60.90
2019-04-26T19:41:17.415Z,61.50
2019-04-26T19:43:47.187Z,61.90
2019-04-26T19:46:25.287Z,63.00
2019-04-26T19:49:14.470Z,63.10
2019-04-26T19:52:03.882Z,63.10
2019-04-26T19:54:38.300Z,64.20
2019-04-26T19:57:25.033Z,64.10
2019-04-26T19:59:54.962Z,65.40
2019-04-26T20:02:26.290Z,65.90
2019-04-26T20:04:56.694Z,66.20
2019-04-26T20:07:29.806Z,66.30
2019-04-26T20:10:02.328Z,66.30
2019-04-26T20:12:35.138Z,66.50
2019-04-26T20:15:05.517Z,66.80
2019-04-26T20:17:35.515Z,67.30
2019-04-26T20:20:16.791Z,68.10
2019-04-26T20:22:37.901Z,67.90
2019-04-26T20:25:07.905Z,68.20
2019-04-26T20:27:37.843Z,68.50
2019-04-26T20:30:10.382Z,68.00
2019-04-26T20:32:44.638Z,68.00
2019-04-26T20:35:20.018Z,68.10
2019-04-26T20:37:49.685Z,68.20
2019-04-26T20:40:25.035Z,69.90
2019-04-26T20:42:53.245Z,71.00
2019-04-26T20:45:23.261Z,72.10
2019-04-26T20:47:55.624Z,72.50
2019-04-26T20:50:28.469Z,73.10
2019-04-26T20:53:00.673Z,72.00
2019-04-26T20:55:30.656Z,71.30
2019-04-26T20:58:00.041Z,70.50
2019-04-26T21:00:31.586Z,70.40
2019-04-26T21:03:05.759Z,70.10
2019-04-26T21:05:45.878Z,69.90
2019-04-26T21:08:05.257Z,69.80
2019-04-26T21:10:36.040Z,71.00
2019-04-26T21:13:06.164Z,71.60
2019-04-26T21:15:36.263Z,71.60
2019-04-26T21:18:06.305Z,72.10
2019-04-26T21:20:36.607Z,70.70
2019-04-26T21:23:06.748Z,70.90
2019-04-26T21:25:38.390Z,73.40
2019-04-26T21:28:15.877Z,74.10
2019-04-26T21:30:47.453Z,73.40
2019-04-26T21:33:24.034Z,73.50
2019-04-26T21:35:57.687Z,72.40
2019-04-26T21:38:39.773Z,74.10
2019-04-26T21:41:14.400Z,75.20
2019-04-26T21:43:44.463Z,72.70
2019-04-26T21:46:18.989Z,75.10
2019-04-26T21:48:46.268Z,75.20
2019-04-26T21:51:16.370Z,74.20
2019-04-26T21:53:47.600Z,73.60
2019-04-26T21:56:17.477Z,73.60
2019-04-26T21:58:47.479Z,73.50
2019-04-26T22:01:21.105Z,74.60
2019-04-26T22:03:55.257Z,74.50
2019-04-26T22:06:26.793Z,75.10
2019-04-26T22:09:09.141Z,76.20
2019-04-26T22:11:44.242Z,75.40
2019-04-26T22:14:31.195Z,77.30
2019-04-26T22:17:14.829Z,77.00
2019-04-26T22:19:45.631Z,77.30
2019-04-26T22:22:29.680Z,75.00
2019-04-26T22:25:04.228Z,75.70
2019-04-26T22:27:34.827Z,76.90
2019-04-26T22:30:09.116Z,77.90
2019-04-26T22:32:39.273Z,78.00
2019-04-26T22:35:09.251Z,77.20
2019-04-26T22:37:41.366Z,76.50
2019-04-26T22:40:16.850Z,77.10
2019-04-26T22:42:45.805Z,77.20
2019-04-26T22:45:33.580Z,77.30
2019-04-26T22:48:05.211Z,78.90
2019-04-26T22:50:35.217Z,79.10
2019-04-26T22:53:05.257Z,80.20
2019-04-26T22:55:36.237Z,79.90
2019-04-26T22:58:06.296Z,80.10
2019-04-26T23:00:39.550Z,79.80
2019-04-26T23:03:09.798Z,79.90
2019-04-26T23:05:39.874Z,80.30
2019-04-26T23:08:10.010Z,80.60
2019-04-26T23:10:50.450Z,79.50
2019-04-26T23:13:37.791Z,80.10
2019-04-26T23:16:19.294Z,80.30
2019-04-26T23:18:59.745Z,80.50
2019-04-26T23:21:31.453Z,81.30
2019-04-26T23:24:01.427Z,81.00
2019-04-26T23:26:31.433Z,79.60
2019-04-26T23:29:01.411Z,80.60
2019-04-26T23:31:33.345Z,80.70
2019-04-26T23:34:03.241Z,80.60
2019-04-26T23:36:34.816Z,81.60
2019-04-26T23:39:07.725Z,80.70
2019-04-26T23:41:37.522Z,81.50
2019-04-26T23:44:08.869Z,81.80
2019-04-26T23:46:38.813Z,81.40
2019-04-26T23:49:08.792Z,81.70
2019-04-26T23:51:43.013Z,81.30
2019-04-26T23:54:10.372Z,81.10
2019-04-26T23:56:40.302Z,80.90
2019-04-26T23:59:10.205Z,80.00
